Aviation Digital Data Service (ADDS)

Output produced by METARs form (0115 UTC 01 November 2020)
found at http://www.aviationweather.gov/metar/data/
 
METAR text: KFAT 010053Z 33003KT 6SM HZ CLR 24/01 A3005 RMK AO2 SLPNO T02440011
Conditions at: KFAT (FRESNO , CA, US) observed 0053 UTC 01 November 2020
Temperature: 24.4°C (76°F)
Dewpoint: 1.1°C (34°F) [RH = 22%]
Pressure (altimeter): 30.05 inches Hg (1017.7 mb)
Winds: from the NNW (330 degrees) at 3 MPH (3 knots; 1.5 m/s)
Visibility: 6 miles (10 km)
Ceiling: at least 12,000 feet AGL
Clouds: sky clear below 12,000 feet AGL
Weather: HZ  (haze)

Forecast for: KFAT (FRESNO , CA, US)
Text: KFAT 312320Z 0100/0124 VRB03KT 6SM HZ SKC
Forecast period: 0000 UTC 01 November 2020 to 0000 UTC 02 November 2020
Forecast type: FROM: standard forecast or significant change
Winds: variable direction winds at 3 MPH (3 knots; 1.5 m/s)
Visibility: 6 miles (10 km)
Clouds: clear skies
Weather: HZ  (haze)